Hlavní strana
METAR-TAF:

METAR-TAF

Letiště :

Ivalo, Finsko

zeměpisná šířka: 68-37N, zeměpisná délka: 027-25E, výška: 147 m

Aktuální stav počasí

Zpráva byla vytvořena před 14 minutami, v 13:20 UTC
Jihojihozápadní vítr 6 kt
Teplota -9°C
Vlhkost vzduchu 73%
Tlak 994 hPa
Viditelnost 10 km a více
Žádná oblačnost pod 1500 m, nevyskytují se cumulonimby.

METAR: EFIV 291320Z 20006KT CAVOK M09/M13 Q0994

Čas: 15:34 (13:34 UTC)

Předpověď počasí

Zpráva byla vytvořena před 1 hodinou a 56 minutami, v 11:38 UTC
Předpověď platná od 29 v 12 UTC do 29 v 21 UTC
Jihozápadní vítr 5 kt
Viditelnost 10 km a více
Žádná oblačnost pod 1500 m, nevyskytují se cumulonimby.

TAF: EFIV 291138Z 2912/2921 23005KT CAVOK

Stav a předpovědi počasí z více než 4 000 letišť (zprávy METAR a TAF).

Červené a žluté tečky na mapě představují dostupné meteorologické stanice.

Když kurzor umístíte na tečku, zobrazí se název stanice.

Pak kliknutím zobrazíte stav a předpověď počasí.

Chcete-li změnit mapu, kliknutím na zelené tlačítko se znaménkem +mapu přiblížíte, kliknutím na zelené tlačítko se znaménkem – mapu oddálíte a kliknutím na zelené šipky přejdete na sousední mapy.


METAR-TAF: